Latest Weather Observations for Kilmore Gap

IDV60801

Issued at 11:02 am EST Tuesday 26 May 2020 (issued every 10 minutes, with the page automatically refreshed every 10 minutes)

About weather observations | Map of weather stations | Latest weather observations for VIC | Other Formats
Station Details ID: 088162 Name: KILMORE GAP Lat: -37.38 Lon: 144.97 Height: 527.8 m
Data from the previous 72 hours. | See also: Recent months at Kilmore Gap
Date/Time
EST
Temp
°C
App
Temp
°C
Dew
Point
°C
Rel
Hum
%
Delta-T
°C
Wind Press
QNH
hPa
Press
MSL
hPa
Rain since
9am
mm
Dir  Spd
km/h
Gust
km/h
Spd
kts
Gust
kts
26/11:00am 11.4 6.9 6.1 70 2.5 NNE 19 22 10 12 1024.6 1024.7 0.0
26/10:30am 10.5 6.2 5.1 69 2.5 NNE 17 20 9 11 1025.0 1025.2 0.0
26/10:00am 10.0 5.5 4.0 66 2.7 NNE 17 22 9 12 1025.3 1025.5 0.0
26/09:30am 9.9 5.8 4.5 69 2.5 NE 15 20 8 11 1025.5 1025.7 0.0
26/09:00am 9.0 4.8 3.8 70 2.3 NE 15 17 8 9 1025.5 1025.7 0.2
26/08:30am 8.0 4.1 3.5 73 2.0 N 13 15 7 8 1025.7 1025.9 0.2
26/08:00am 7.2 2.8 2.9 74 1.8 N 15 17 8 9 1025.1 1025.3 0.2
26/07:30am 6.4 2.0 2.5 76 1.7 NNW 15 19 8 10 1025.0 1025.2 0.2
26/07:00am 6.5 1.7 2.8 77 1.6 N 17 20 9 11 1024.8 1025.0 0.2
26/06:30am 6.4 1.3 2.9 78 1.5 NNE 19 22 10 12 1024.1 1024.3 0.2
26/06:00am 6.4 0.7 3.0 79 1.5 N 22 24 12 13 1023.8 1024.0 0.2
26/05:30am 6.2 1.0 3.5 83 1.2 N 20 24 11 13 1023.8 1024.0 0.2
26/05:00am 6.6 1.0 3.6 81 1.3 N 22 26 12 14 1023.5 1023.7 0.2
26/04:30am 6.7 1.7 3.5 80 1.4 N 19 20 10 11 1023.3 1023.5 0.2
26/04:00am 7.3 3.2 4.4 82 1.3 NE 15 19 8 10 1023.4 1023.6 0.2
26/03:30am 7.2 2.9 5.3 88 0.9 ENE 17 20 9 11 1023.6 1023.8 0.2
26/03:00am 7.1 3.9 6.8 98 0.1 NE 13 15 7 8 1023.9 1024.1 0.2
26/02:30am 7.5 4.8 7.5 100 0.0 E 11 11 6 6 1024.0 1024.2 0.2
26/02:24am 7.2 4.8 7.2 100 0.0 E 9 11 5 6 1024.0 1024.2 0.2
26/02:00am 6.4 4.2 6.4 100 0.0 SSE 7 9 4 5 1024.1 1024.3 0.2
26/01:47am 6.4 3.9 6.4 100 0.0 S 9 11 5 6 1024.2 1024.4 0.2
26/01:30am 6.5 4.0 6.5 100 0.0 SSE 9 11 5 6 1024.2 1024.4 0.0
26/01:00am 6.5 3.6 6.5 100 0.0 S 11 13 6 7 1024.6 1024.7 0.0
26/12:30am 6.4 2.7 6.3 99 0.0 S 15 17 8 9 1024.8 1025.0 0.0
26/12:09am 6.5 3.2 6.4 99 0.0 S 13 17 7 9 1024.9 1025.1 0.0
26/12:00am 6.8 4.0 6.8 100 0.0 SSW 11 15 6 8 1024.9 1025.1 0.0
 
Date/Time
EST
Temp
°C
App
Temp
°C
Dew
Point
°C
Rel
Hum
%
Delta-T
°C
Wind Press
QNH
hPa
Press
MSL
hPa
Rain since
9am
mm
Dir  Spd
km/h
Gust
km/h
Spd
kts
Gust
kts
25/11:30pm 6.3 3.7 6.2 99 0.0 SW 9 11 5 6 1024.9 1025.1 0.0
25/11:00pm 6.6 4.5 6.5 99 0.0 SW 7 9 4 5 1024.9 1025.1 0.0
25/10:30pm 7.6 5.3 7.5 99 0.0 S 9 11 5 6 1024.9 1025.1 0.0
25/10:00pm 7.1 4.3 7.0 99 0.0 S 11 11 6 6 1025.0 1025.2 0.0
25/09:30pm 7.1 3.9 7.0 99 0.0 S 13 17 7 9 1025.0 1025.2 0.0
25/09:00pm 7.4 4.6 7.0 97 0.2 SSW 11 15 6 8 1024.9 1025.1 0.0
25/08:30pm 7.9 5.1 7.1 95 0.4 SSW 11 15 6 8 1024.8 1025.0 0.0
25/08:00pm 8.0 4.9 7.2 95 0.4 SSW 13 17 7 9 1024.7 1024.9 0.0
25/07:30pm 7.0 3.3 6.3 95 0.3 WSW 15 19 8 10 1024.8 1025.0 0.0
25/07:00pm 7.7 3.6 6.2 90 0.7 SW 17 20 9 11 1024.7 1024.9 0.0
25/06:30pm 8.5 5.2 6.5 87 1.0 SSW 13 17 7 9 1024.5 1024.6 0.0
25/06:00pm 8.6 5.3 6.4 86 1.0 SSW 13 17 7 9 1024.2 1024.4 0.0
25/05:30pm 8.8 6.0 6.9 88 0.9 SSW 11 13 6 7 1024.1 1024.3 0.0
25/05:00pm 8.7 5.8 6.7 87 1.0 SSW 11 17 6 9 1023.8 1024.0 0.0
25/04:30pm 9.5 5.6 6.9 84 1.3 S 17 24 9 13 1023.6 1023.8 0.0
25/04:00pm 9.6 4.7 6.7 82 1.4 SSE 22 26 12 14 1023.6 1023.8 0.0
25/03:30pm 10.0 5.1 7.1 82 1.4 S 22 30 12 16 1023.7 1023.9 0.0
25/03:00pm 10.2 5.8 7.3 82 1.4 S 20 26 11 14 1023.6 1023.8 0.0
25/02:30pm 10.2 5.4 7.4 83 1.4 SSE 22 30 12 16 1023.4 1023.6 0.0
25/02:00pm 10.3 5.1 7.4 82 1.4 SSE 24 33 13 18 1023.3 1023.5 0.0
25/01:30pm 10.2 5.1 7.6 84 1.3 SSE 24 33 13 18 1023.5 1023.7 0.0
25/01:00pm 10.2 5.6 8.1 87 1.0 SSE 22 32 12 17 1023.7 1023.9 0.0
25/12:30pm 9.9 4.5 8.2 89 0.8 SSE 26 33 14 18 1023.9 1024.1 0.0
25/12:00pm 8.5 2.6 7.6 94 0.4 SSE 28 35 15 19 1024.3 1024.5 0.0
25/11:30am 8.8 3.6 8.7 99 0.1 SSE 26 35 14 19 1024.7 1024.9 0.0
25/11:00am 8.1 3.1 8.1 100 0.0 SSE 24 32 13 17 1024.8 1025.0 0.0
25/10:54am 7.8 2.7 7.8 100 0.0 SSE 24 30 13 16 1024.9 1025.1 0.0
25/10:30am 7.8 2.7 7.8 100 0.0 SSE 24 32 13 17 1025.3 1025.5 0.0
25/10:00am 7.2 2.4 7.2 100 0.0 S 22 32 12 17 1025.4 1025.6 0.0
25/09:55am 7.1 2.6 7.1 100 0.0 S 20 32 11 17 1025.4 1025.6 0.0
25/09:30am 6.4 1.8 6.4 100 0.0 S 20 26 11 14 1025.0 1025.2 0.0
25/09:00am 5.8 0.7 5.8 100 0.0 S 22 28 12 15 1024.3 1024.5 0.2
25/08:30am 5.3 -1.1 5.3 100 0.0 S 28 33 15 18 1023.9 1024.1 0.2
25/08:00am 5.0 -2.4 5.0 100 0.0 S 33 41 18 22 1023.8 1024.0 0.2
25/07:30am 4.7 -3.1 4.7 100 0.0 S 35 43 19 23 1023.4 1023.6 0.2
25/07:25am 4.7 -3.1 4.7 100 0.0 S 35 43 19 23 1023.4 1023.6 0.2
25/07:00am 4.7 -3.1 4.7 100 0.0 S 35 43 19 23 1023.3 1023.5 0.2
25/06:30am 4.8 -3.0 4.8 100 0.0 S 35 43 19 23 1023.2 1023.4 0.2
25/06:00am 5.1 -2.7 5.1 100 0.0 S 35 39 19 21 1023.2 1023.4 0.2
25/05:30am 5.1 -3.0 5.1 100 0.0 S 37 43 20 23 1023.1 1023.3 0.2
25/05:00am 5.5 -2.5 5.5 100 0.0 S 37 46 20 25 1023.0 1023.1 0.2
25/04:30am 5.4 -2.3 5.4 100 0.0 S 35 46 19 25 1022.9 1023.0 0.2
25/04:00am 5.0 -2.4 5.0 100 0.0 S 33 44 18 24 1022.9 1023.0 0.2
25/03:30am 4.9 -1.9 4.9 100 0.0 S 30 39 16 21 1023.2 1023.4 0.0
25/03:28am 4.8 -2.1 4.8 100 0.0 S 30 39 16 21 1023.2 1023.4 0.0
25/03:19am 4.8 -2.1 4.8 100 0.0 S 30 37 16 20 1023.2 1023.4 0.0
25/03:00am 4.9 -1.9 4.9 100 0.0 S 30 35 16 19 1023.1 1023.3 0.0
25/02:53am 5.0 -1.8 5.0 100 0.0 S 30 39 16 21 1023.1 1023.3 0.0
25/02:51am 5.0 -1.8 5.0 100 0.0 S 30 39 16 21 1023.1 1023.3 0.0
25/02:30am 5.0 -2.4 5.0 100 0.0 S 33 41 18 22 1023.0 1023.1 0.0
25/02:00am 4.9 -2.3 4.9 100 0.0 S 32 37 17 20 1022.8 1022.9 0.0
25/01:57am 5.0 -2.2 5.0 100 0.0 S 32 39 17 21 1022.8 1022.9 0.0
25/01:30am 5.2 -2.2 5.2 100 0.0 S 33 41 18 22 1023.1 1023.3 0.0
25/01:27am 5.2 -2.0 5.2 100 0.0 S 32 39 17 21 1023.1 1023.3 0.0
25/01:00am 5.2 -2.0 5.2 100 0.0 S 32 39 17 21 1023.3 1023.5 0.0
25/12:31am 5.3 -1.5 5.3 100 0.0 S 30 35 16 19 1023.3 1023.5 0.0
25/12:30am 5.2 -1.6 5.2 100 0.0 S 30 35 16 19 1023.3 1023.5 0.0
25/12:04am 5.5 -0.8 5.5 100 0.0 S 28 35 15 19 1023.3 1023.5 0.0
25/12:00am 5.4 -1.0 5.4 100 0.0 S 28 37 15 20 1023.3 1023.5 0.0
 
Date/Time
EST
Temp
°C
App
Temp
°C
Dew
Point
°C
Rel
Hum
%
Delta-T
°C
Wind Press
QNH
hPa
Press
MSL
hPa
Rain since
9am
mm
Dir  Spd
km/h
Gust
km/h
Spd
kts
Gust
kts
24/11:30pm 5.5 -1.8 5.5 100 0.0 S 33 41 18 22 1023.1 1023.3 0.0
24/11:27pm 5.5 -2.2 5.5 100 0.0 S 35 41 19 22 1023.1 1023.3 0.0
24/11:00pm 5.7 -1.9 5.7 100 0.0 S 35 41 19 22 1022.9 1023.0 0.0
24/10:33pm 5.9 -1.7 5.9 100 0.0 S 35 46 19 25 1022.9 1023.0 0.0
24/10:30pm 5.9 -1.7 5.9 100 0.0 S 35 46 19 25 1022.9 1023.0 0.0
24/10:00pm 6.0 -1.2 6.0 100 0.0 S 33 39 18 21 1022.7 1022.8 0.0
24/09:30pm 6.5 -0.6 6.5 100 0.0 S 33 41 18 22 1022.7 1022.8 0.0
24/09:00pm 6.8 0.0 6.8 100 0.0 S 32 41 17 22 1022.6 1022.7 0.0
24/08:30pm 7.0 0.6 7.0 100 0.0 S 30 39 16 21 1022.2 1022.4 0.0
24/08:00pm 7.3 1.0 7.3 100 0.0 S 30 39 16 21 1022.0 1022.2 0.0
24/07:30pm 7.7 0.9 7.7 100 0.0 S 33 44 18 24 1021.8 1022.0 0.0
24/07:00pm 8.1 2.0 8.1 100 0.0 S 30 43 16 23 1021.7 1021.9 0.0
24/06:30pm 8.2 1.7 8.2 100 0.0 S 32 46 17 25 1021.5 1021.7 0.0
24/06:00pm 8.1 1.6 8.1 100 0.0 S 32 44 17 24 1021.5 1021.7 0.0
24/05:45pm 8.1 2.3 8.1 100 0.0 S 28 46 15 25 1021.4 1021.6 0.0
24/05:30pm 8.1 3.5 8.1 100 0.0 S 22 37 12 20 1021.3 1021.4 0.0
24/05:29pm 8.1 3.5 8.1 100 0.0 S 22 37 12 20 1021.3 1021.4 0.0
24/05:00pm 8.1 3.5 8.1 100 0.0 SSW 22 32 12 17 1021.3 1021.4 0.0
24/04:30pm 8.1 3.5 8.0 99 0.0 S 22 32 12 17 1021.2 1021.3 0.0
24/04:00pm 7.9 3.6 7.8 99 0.0 SSW 20 32 11 17 1021.1 1021.2 0.0
24/03:30pm 7.9 2.9 7.9 100 0.0 SSW 24 33 13 18 1021.0 1021.1 0.0
24/03:12pm 7.6 2.5 7.6 100 0.0 SSW 24 33 13 18 1020.9 1021.0 0.0
24/03:00pm 7.5 2.4 7.5 100 0.0 SSW 24 37 13 20 1020.8 1020.9 0.0
24/02:42pm 7.5 1.2 7.4 99 0.0 S 30 44 16 24 1020.7 1020.8 0.0
24/02:30pm 7.5 1.6 7.4 99 0.0 S 28 43 15 23 1020.6 1020.7 0.0
24/02:04pm 8.0 2.0 7.2 95 0.4 S 28 46 15 25 1020.3 1020.5 0.0
24/02:00pm 8.2 3.0 7.4 95 0.4 S 24 41 13 22 1020.2 1020.4 0.0
24/01:49pm 8.4 2.4 6.9 90 0.7 S 28 43 15 23 1020.3 1020.5 0.0
24/01:30pm 8.1 2.3 6.2 88 0.9 S 26 43 14 23 1020.2 1020.4 0.0
24/01:00pm 8.7 2.1 6.0 83 1.3 SSW 30 43 16 23 1020.2 1020.4 0.0
24/12:37pm 8.7 1.7 6.2 84 1.2 S 32 50 17 27 1020.3 1020.5 0.0
24/12:30pm 8.7 1.5 6.0 83 1.3 S 33 46 18 25 1020.5 1020.6 0.0
24/12:18pm 9.0 2.9 6.4 84 1.2 S 28 41 15 22 1020.6 1020.7 0.0
24/12:00pm 8.3 2.6 6.6 89 0.8 S 26 37 14 20 1020.8 1020.9 0.0
24/11:42am 7.9 1.7 6.2 89 0.8 S 28 46 15 25 1021.1 1021.2 0.0
24/11:30am 8.0 1.9 6.5 90 0.7 SSW 28 43 15 23 1021.0 1021.1 0.0
24/11:00am 7.9 2.5 7.9 100 0.0 SSW 26 37 14 20 1021.0 1021.1 0.0
24/10:51am 7.5 2.0 7.5 100 0.0 SSW 26 41 14 22 1021.1 1021.2 0.0
24/10:30am 7.6 1.7 7.6 100 0.0 SSW 28 39 15 21 1021.0 1021.1 0.0
24/10:09am 7.3 1.4 7.3 100 0.0 SSW 28 46 15 25 1020.7 1020.8 0.0
24/10:02am 7.5 0.7 7.5 100 0.0 S 33 52 18 28 1020.7 1020.8 0.0
24/10:00am 7.7 0.1 7.7 100 0.0 S 37 52 20 28 1020.7 1020.8 0.0
24/09:32am 7.5 0.7 7.5 100 0.0 S 33 44 18 24 1020.6 1020.7 0.0
24/09:30am 7.2 0.5 7.2 100 0.0 S 32 44 17 24 1020.6 1020.7 0.0
24/09:12am 7.2 1.2 7.2 100 0.0 S 28 43 15 23 1020.5 1020.6 0.0
24/09:00am 6.7 0.6 6.7 100 0.0 S 28 41 15 22 1020.3 1020.5 14.4
24/08:30am 6.1 -1.4 6.1 100 0.0 S 35 54 19 29 1020.0 1020.2 14.4
24/08:09am 6.4 -0.1 6.4 100 0.0 S 30 54 16 29 1019.8 1020.0 14.4
24/08:05am 6.5 0.0 6.5 100 0.0 S 30 48 16 26 1019.8 1020.0 14.4
24/08:00am 6.5 0.4 6.5 100 0.0 S 28 43 15 23 1019.7 1019.8 14.4
24/07:33am 6.6 1.3 6.6 100 0.0 SSW 24 37 13 20 1019.6 1019.7 14.4
24/07:30am 6.6 1.3 6.6 100 0.0 S 24 35 13 19 1019.6 1019.7 14.4
24/07:00am 6.3 1.3 6.3 100 0.0 SSW 22 32 12 17 1019.4 1019.5 14.4
24/06:30am 5.8 -2.9 5.8 100 0.0 S 41 52 22 28 1018.9 1019.0 14.4
24/06:18am 6.1 -1.4 6.1 100 0.0 S 35 56 19 30 1018.8 1018.9 14.4
24/06:14am 6.2 -0.8 6.2 100 0.0 S 32 56 17 30 1018.8 1018.9 14.4
24/06:13am 6.3 -0.6 6.3 100 0.0 S 32 48 17 26 1018.8 1018.9 14.4
24/06:11am 6.4 -0.1 6.4 100 0.0 S 30 48 16 26 1018.8 1018.9 14.4
24/06:00am 6.5 0.8 6.5 100 0.0 S 26 41 14 22 1018.8 1018.9 14.4
24/05:30am 6.8 0.7 6.8 100 0.0 SSW 28 41 15 22 1018.6 1018.7 14.4
24/05:17am 6.7 0.6 6.7 100 0.0 SSW 28 48 15 26 1018.5 1018.6 14.4
24/05:01am 6.7 1.4 6.7 100 0.0 S 24 37 13 20 1018.3 1018.5 14.4
24/05:00am 6.7 1.0 6.7 100 0.0 S 26 37 14 20 1018.2 1018.4 14.4
24/04:57am 6.7 1.0 6.7 100 0.0 S 26 37 14 20 1018.2 1018.4 14.4
24/04:43am 6.7 1.4 6.7 100 0.0 SSW 24 35 13 19 1018.0 1018.1 14.4
24/04:30am 6.7 1.4 6.7 100 0.0 SSW 24 35 13 19 1018.0 1018.1 14.4
24/04:21am 6.7 1.4 6.7 100 0.0 SSW 24 35 13 19 1017.9 1018.0 14.4
24/04:00am 6.7 1.0 6.7 100 0.0 S 26 39 14 21 1017.8 1017.9 14.4
24/03:59am 6.7 1.0 6.7 100 0.0 S 26 39 14 21 1017.8 1017.9 14.4
24/03:49am 6.7 0.2 6.7 100 0.0 S 30 44 16 24 1017.8 1017.9 14.4
24/03:30am 6.9 0.9 6.9 100 0.0 S 28 43 15 23 1017.7 1017.8 14.4
24/03:00am 7.1 0.3 7.1 100 0.0 SSW 32 46 17 25 1017.8 1017.9 14.2
24/02:30am 7.5 0.8 7.5 100 0.0 S 32 54 17 29 1017.9 1018.0 14.2
24/02:15am 7.6 0.4 7.6 100 0.0 S 35 54 19 29 1017.9 1018.0 14.2
24/02:00am 7.6 -0.4 7.6 100 0.0 S 39 54 21 29 1017.7 1017.8 14.2
24/01:30am 7.7 1.1 7.7 100 0.0 S 32 50 17 27 1017.7 1017.8 13.6
24/01:17am 7.8 1.6 7.8 100 0.0 SSW 30 48 16 26 1017.5 1017.6 12.8
24/01:00am 8.0 1.5 8.0 100 0.0 S 32 46 17 25 1017.6 1017.7 12.2
24/12:31am 8.2 2.5 8.2 100 0.0 S 28 46 15 25 1017.8 1017.9 10.6
24/12:30am 8.3 2.2 8.3 100 0.0 S 30 46 16 25 1017.8 1017.9 10.6
24/12:13am 8.3 1.8 8.3 100 0.0 S 32 50 17 27 1017.6 1017.7 9.4
24/12:00am 8.3 1.8 8.3 100 0.0 S 32 46 17 25 1017.6 1017.7 9.0
 
Date/Time
EST
Temp
°C
App
Temp
°C
Dew
Point
°C
Rel
Hum
%
Delta-T
°C
Wind Press
QNH
hPa
Press
MSL
hPa
Rain since
9am
mm
Dir  Spd
km/h
Gust
km/h
Spd
kts
Gust
kts
23/11:32pm 8.5 1.9 8.5 100 0.0 S 33 54 18 29 1017.7 1017.8 7.8
23/11:30pm 8.5 1.9 8.5 100 0.0 S 33 46 18 25 1017.7 1017.8 7.8
23/11:00pm 8.4 1.4 8.4 100 0.0 S 35 48 19 26 1017.6 1017.7 6.8
23/10:30pm 8.4 1.4 8.4 100 0.0 S 35 48 19 26 1017.6 1017.7 6.2
23/10:00pm 8.5 1.9 8.5 100 0.0 S 33 44 18 24 1017.6 1017.7 6.0
23/09:30pm 8.5 2.5 8.5 100 0.0 S 30 43 16 23 1017.5 1017.6 5.6
23/09:13pm 8.5 2.8 8.5 100 0.0 S 28 46 15 25 1017.4 1017.5 5.6
23/09:00pm 8.5 1.9 8.5 100 0.0 S 33 44 18 24 1017.4 1017.5 5.4
23/08:30pm 8.5 1.5 8.5 100 0.0 S 35 56 19 30 1017.3 1017.4 5.4
23/08:00pm 8.7 1.4 8.7 100 0.0 S 37 57 20 31 1017.0 1017.1 5.4
23/07:55pm 8.7 2.1 8.7 100 0.0 S 33 52 18 28 1017.0 1017.1 5.4
23/07:30pm 8.7 2.7 8.7 100 0.0 SSW 30 43 16 23 1016.8 1016.9 5.2
23/07:01pm 8.8 3.2 8.8 100 0.0 S 28 46 15 25 1016.7 1016.8 5.0
23/07:00pm 8.8 3.2 8.8 100 0.0 S 28 44 15 24 1016.7 1016.8 5.0
23/06:38pm 8.8 3.2 8.8 100 0.0 S 28 46 15 25 1016.3 1016.4 4.6
23/06:30pm 8.9 3.3 8.9 100 0.0 S 28 44 15 24 1016.3 1016.4 4.4
23/06:00pm 8.8 2.3 8.8 100 0.0 S 33 46 18 25 1016.2 1016.3 4.0
23/05:30pm 8.8 3.2 8.8 100 0.0 S 28 43 15 23 1016.0 1016.1 3.8
23/05:25pm 8.8 2.8 8.8 100 0.0 S 30 48 16 26 1016.0 1016.1 3.8
23/05:00pm 8.8 1.9 8.8 100 0.0 S 35 46 19 25 1015.9 1016.0 3.2
23/04:43pm 8.7 2.7 8.7 100 0.0 SSW 30 52 16 28 1015.8 1015.9 3.2
23/04:30pm 8.7 3.1 8.7 100 0.0 S 28 44 15 24 1015.8 1015.9 3.2
23/04:23pm 8.7 2.7 8.7 100 0.0 S 30 48 16 26 1015.9 1016.0 3.2
23/04:00pm 8.6 2.6 8.6 100 0.0 S 30 44 16 24 1015.8 1015.9 2.8
23/03:30pm 8.7 3.1 8.7 100 0.0 S 28 39 15 21 1015.8 1015.9 2.4
23/03:00pm 8.7 1.8 8.7 100 0.0 S 35 48 19 26 1015.6 1015.7 2.4
23/02:30pm 8.6 3.3 8.6 100 0.0 S 26 41 14 22 1015.6 1015.7 2.0
23/02:00pm 8.7 3.1 8.7 100 0.0 S 28 37 15 20 1015.8 1015.9 2.0
23/01:48pm 8.7 2.7 8.7 100 0.0 S 30 48 16 26 1015.8 1015.9 1.8
23/01:30pm 8.7 3.5 8.7 100 0.0 S 26 46 14 25 1015.9 1016.0 1.8
23/01:27pm 8.6 3.0 8.6 100 0.0 S 28 46 15 25 1015.9 1016.0 1.8
23/01:00pm 8.5 2.8 8.5 100 0.0 S 28 39 15 21 1016.1 1016.2 1.8
23/12:30pm 8.2 2.8 8.2 100 0.0 S 26 33 14 18 1016.6 1016.7 1.6
23/12:00pm 7.9 2.9 7.9 100 0.0 S 24 33 13 18 1017.0 1017.1 1.4
23/11:30am 7.6 2.5 7.6 100 0.0 SSE 24 30 13 16 1017.4 1017.5 1.0

Other formats

Comma delimited format used in spreadsheet applications
http://www.bom.gov.au/fwo/IDV60801/IDV60801.94860.axf

JavaScript Object Notation format (JSON) in row-major order
http://www.bom.gov.au/fwo/IDV60801/IDV60801.94860.json

Data quality

Most of these data are generated automatically and are frequently updated. Quality checks on data are not normally performed. It is possible for incorrect values to appear. Refer to information at About Latest Weather Observations and please check the disclaimer before using these data.